Terminal Aerodrome Forecast
Issued by NWS Boston, MA

Home | Current Version | Previous Version | Text Only | Print | Product List | Glossary On
Versions: 1 2 3 4 5 6 7 8 9 10 11 12 13 14 15 16 17 18 19 20 21 22 23 24 25 26 27 28
000
FTUS41 KBOX 201128
TAFBDL
TAF
KBDL 201128Z 2012/2118 18009KT P6SM SCT008 OVC080
     FM201500 19011KT P6SM SCT050
     FM201700 20012KT P6SM BKN050
     FM210000 20009KT 6SM BR SCT050
     FM210400 19006KT 3SM BR BKN020
     FM210600 20005KT 1SM BR BKN008
     FM210700 20005KT 1/2SM FG BKN003
     FM211100 20005KT 2SM BR BKN020
     FM211300 20005KT 3SM BR BKN015
     FM211400 20006KT P6SM SCT015=

USA.gov is the U.S. government's official web portal to all federal, state and local government web resources and services.